Topeka/Forbes Field, Kansas
Current Conditions -  °F | °C
As of 8:53 AM on Sunday 28 Dec 2014 (Local Time) from KFOE Reporting Station
Clear Clear  
Wind Chill: 16°   Ceiling: Unl
Heat Index: 22°   Visibility: 10mi
Dew Point: 17°   Wind: 5mph
Humidity: 82%   Direction: 200°SSW
Pressure: 30.22"   Gusts: NA
Location:  38.95°N, 95.66°W
Report Text: KFOE 281453Z 20004KT 10SM CLR M06/M08 A3022 RMK AO2 SLP249 T10561083 51009
Loading
Personal Weather Stations






























Interactive Weather Map New forecast layout! Learn more

10-Day Weather Forecast

Advertisements
Track Severe Weather on mobile